sensor_id;sensor_type;location;lat;lon;timestamp;temperature;humidity
8888;DHT22;4480;52.370;9.748;2023-05-21T00:00:01;13.50;99.90
8888;DHT22;4480;52.370;9.748;2023-05-21T00:02:32;13.50;99.90
8888;DHT22;4480;52.370;9.748;2023-05-21T00:05:00;13.40;99.90
8888;DHT22;4480;52.370;9.748;2023-05-21T00:07:27;13.40;99.90
8888;DHT22;4480;52.370;9.748;2023-05-21T00:09:55;13.30;99.90
8888;DHT22;4480;52.370;9.748;2023-05-21T00:12:22;13.20;99.90
8888;DHT22;4480;52.370;9.748;2023-05-21T00:14:48;13.20;99.90
8888;DHT22;4480;52.370;9.748;2023-05-21T00:17:15;13.20;99.90
8888;DHT22;4480;52.370;9.748;2023-05-21T00:19:42;13.10;99.90
8888;DHT22;4480;52.370;9.748;2023-05-21T00:22:09;13.10;99.90
8888;DHT22;4480;52.370;9.748;2023-05-21T00:24:36;13.10;99.90
8888;DHT22;4480;52.370;9.748;2023-05-21T00:27:04;13.10;99.90
8888;DHT22;4480;52.370;9.748;2023-05-21T00:29:31;13.10;99.90
8888;DHT22;4480;52.370;9.748;2023-05-21T00:31:57;13.00;99.90
8888;DHT22;4480;52.370;9.748;2023-05-21T00:34:24;13.10;99.90
8888;DHT22;4480;52.370;9.748;2023-05-21T00:36:51;13.00;99.90
8888;DHT22;4480;52.370;9.748;2023-05-21T00:39:20;13.00;99.90
8888;DHT22;4480;52.370;9.748;2023-05-21T00:41:47;12.90;99.90
8888;DHT22;4480;52.370;9.748;2023-05-21T00:44:15;12.90;99.90
8888;DHT22;4480;52.370;9.748;2023-05-21T00:46:43;12.90;99.90
8888;DHT22;4480;52.370;9.748;2023-05-21T00:49:13;12.90;99.90
8888;DHT22;4480;52.370;9.748;2023-05-21T00:51:40;12.90;99.90
8888;DHT22;4480;52.370;9.748;2023-05-21T00:54:09;12.90;99.90
8888;DHT22;4480;52.370;9.748;2023-05-21T00:56:36;12.80;99.90
8888;DHT22;4480;52.370;9.748;2023-05-21T00:59:03;12.80;99.90
8888;DHT22;4480;52.370;9.748;2023-05-21T01:01:32;12.80;99.90
8888;DHT22;4480;52.370;9.748;2023-05-21T01:04:01;12.80;99.90
8888;DHT22;4480;52.370;9.748;2023-05-21T01:06:28;12.80;99.90
8888;DHT22;4480;52.370;9.748;2023-05-21T01:08:59;12.80;99.90
8888;DHT22;4480;52.370;9.748;2023-05-21T01:11:36;12.70;99.90
8888;DHT22;4480;52.370;9.748;2023-05-21T01:14:04;12.70;99.90
8888;DHT22;4480;52.370;9.748;2023-05-21T01:16:36;12.70;99.90
8888;DHT22;4480;52.370;9.748;2023-05-21T01:19:04;12.70;99.90
8888;DHT22;4480;52.370;9.748;2023-05-21T01:21:32;12.70;99.90
8888;DHT22;4480;52.370;9.748;2023-05-21T01:24:03;12.70;99.90
8888;DHT22;4480;52.370;9.748;2023-05-21T01:26:32;12.70;99.90
8888;DHT22;4480;52.370;9.748;2023-05-21T01:29:03;12.70;99.90
8888;DHT22;4480;52.370;9.748;2023-05-21T01:31:33;12.60;99.90
8888;DHT22;4480;52.370;9.748;2023-05-21T01:34:04;12.60;99.90
8888;DHT22;4480;52.370;9.748;2023-05-21T01:36:36;12.60;99.90
8888;DHT22;4480;52.370;9.748;2023-05-21T01:39:10;12.60;99.90
8888;DHT22;4480;52.370;9.748;2023-05-21T01:41:42;12.60;99.90
8888;DHT22;4480;52.370;9.748;2023-05-21T01:44:11;12.60;99.90
8888;DHT22;4480;52.370;9.748;2023-05-21T01:46:38;12.60;99.90
8888;DHT22;4480;52.370;9.748;2023-05-21T01:49:06;12.60;99.90
8888;DHT22;4480;52.370;9.748;2023-05-21T01:51:34;12.50;99.90
8888;DHT22;4480;52.370;9.748;2023-05-21T01:54:01;12.50;99.90
8888;DHT22;4480;52.370;9.748;2023-05-21T01:56:30;12.50;99.90
8888;DHT22;4480;52.370;9.748;2023-05-21T01:58:58;12.50;99.90
8888;DHT22;4480;52.370;9.748;2023-05-21T02:01:25;12.50;99.90
8888;DHT22;4480;52.370;9.748;2023-05-21T02:03:54;12.50;99.90
8888;DHT22;4480;52.370;9.748;2023-05-21T02:06:21;12.40;99.90
8888;DHT22;4480;52.370;9.748;2023-05-21T02:08:48;12.40;99.90
8888;DHT22;4480;52.370;9.748;2023-05-21T02:11:15;12.40;99.90
8888;DHT22;4480;52.370;9.748;2023-05-21T02:13:43;12.30;99.90
8888;DHT22;4480;52.370;9.748;2023-05-21T02:16:11;12.30;99.90
8888;DHT22;4480;52.370;9.748;2023-05-21T02:18:39;12.30;99.90
8888;DHT22;4480;52.370;9.748;2023-05-21T02:21:06;12.20;99.90
8888;DHT22;4480;52.370;9.748;2023-05-21T02:23:33;12.20;99.90
8888;DHT22;4480;52.370;9.748;2023-05-21T02:26:00;12.20;99.90
8888;DHT22;4480;52.370;9.748;2023-05-21T02:28:27;12.10;99.90
8888;DHT22;4480;52.370;9.748;2023-05-21T02:30:56;12.10;99.90
8888;DHT22;4480;52.370;9.748;2023-05-21T02:33:23;12.10;99.90
8888;DHT22;4480;52.370;9.748;2023-05-21T02:35:50;12.10;99.90
8888;DHT22;4480;52.370;9.748;2023-05-21T02:38:17;12.10;99.90
8888;DHT22;4480;52.370;9.748;2023-05-21T02:40:48;12.00;99.90
8888;DHT22;4480;52.370;9.748;2023-05-21T02:43:15;12.00;99.90
8888;DHT22;4480;52.370;9.748;2023-05-21T02:45:42;12.00;99.90
8888;DHT22;4480;52.370;9.748;2023-05-21T02:48:10;12.00;99.90
8888;DHT22;4480;52.370;9.748;2023-05-21T02:50:37;12.00;99.90
8888;DHT22;4480;52.370;9.748;2023-05-21T02:53:03;12.00;99.90
8888;DHT22;4480;52.370;9.748;2023-05-21T02:55:30;12.00;99.90
8888;DHT22;4480;52.370;9.748;2023-05-21T02:57:57;11.90;99.90
8888;DHT22;4480;52.370;9.748;2023-05-21T03:00:24;11.90;99.90
8888;DHT22;4480;52.370;9.748;2023-05-21T03:02:50;11.90;99.90
8888;DHT22;4480;52.370;9.748;2023-05-21T03:05:19;11.90;99.90
8888;DHT22;4480;52.370;9.748;2023-05-21T03:07:45;11.90;99.90
8888;DHT22;4480;52.370;9.748;2023-05-21T03:10:12;11.90;99.90
8888;DHT22;4480;52.370;9.748;2023-05-21T03:12:39;11.80;99.90
8888;DHT22;4480;52.370;9.748;2023-05-21T03:15:06;11.80;99.90
8888;DHT22;4480;52.370;9.748;2023-05-21T03:17:33;11.80;99.90
8888;DHT22;4480;52.370;9.748;2023-05-21T03:20:00;11.80;99.90
8888;DHT22;4480;52.370;9.748;2023-05-21T03:22:30;11.80;99.90
8888;DHT22;4480;52.370;9.748;2023-05-21T03:24:58;11.80;99.90
8888;DHT22;4480;52.370;9.748;2023-05-21T03:27:26;11.80;99.90
8888;DHT22;4480;52.370;9.748;2023-05-21T03:29:53;11.80;99.90
8888;DHT22;4480;52.370;9.748;2023-05-21T03:32:20;11.80;99.90
8888;DHT22;4480;52.370;9.748;2023-05-21T03:34:47;11.80;99.90
8888;DHT22;4480;52.370;9.748;2023-05-21T03:37:13;11.70;99.90
8888;DHT22;4480;52.370;9.748;2023-05-21T03:39:41;11.80;99.90
8888;DHT22;4480;52.370;9.748;2023-05-21T03:42:08;11.70;99.90
8888;DHT22;4480;52.370;9.748;2023-05-21T03:44:35;11.80;99.90
8888;DHT22;4480;52.370;9.748;2023-05-21T03:47:02;11.80;99.90
8888;DHT22;4480;52.370;9.748;2023-05-21T03:49:28;11.80;99.90
8888;DHT22;4480;52.370;9.748;2023-05-21T03:51:55;11.80;99.90
8888;DHT22;4480;52.370;9.748;2023-05-21T03:54:22;11.80;99.90
8888;DHT22;4480;52.370;9.748;2023-05-21T03:56:50;11.80;99.90
8888;DHT22;4480;52.370;9.748;2023-05-21T03:59:17;11.90;99.90
8888;DHT22;4480;52.370;9.748;2023-05-21T04:01:44;11.90;99.90
8888;DHT22;4480;52.370;9.748;2023-05-21T04:04:10;12.00;99.90
8888;DHT22;4480;52.370;9.748;2023-05-21T04:06:37;12.00;99.90
8888;DHT22;4480;52.370;9.748;2023-05-21T04:11:44;12.00;99.90
8888;DHT22;4480;52.370;9.748;2023-05-21T04:14:12;12.00;99.90
8888;DHT22;4480;52.370;9.748;2023-05-21T04:16:38;12.10;99.90
8888;DHT22;4480;52.370;9.748;2023-05-21T04:19:08;12.10;99.90
8888;DHT22;4480;52.370;9.748;2023-05-21T04:21:35;12.20;99.90
8888;DHT22;4480;52.370;9.748;2023-05-21T04:24:02;12.30;99.90
8888;DHT22;4480;52.370;9.748;2023-05-21T04:26:28;12.40;99.90
8888;DHT22;4480;52.370;9.748;2023-05-21T04:28:59;12.50;99.90
8888;DHT22;4480;52.370;9.748;2023-05-21T04:31:28;12.50;99.90
8888;DHT22;4480;52.370;9.748;2023-05-21T04:33:55;12.60;99.90
8888;DHT22;4480;52.370;9.748;2023-05-21T04:36:22;12.70;99.90
8888;DHT22;4480;52.370;9.748;2023-05-21T04:38:49;12.80;99.90
8888;DHT22;4480;52.370;9.748;2023-05-21T04:41:16;12.90;99.90
8888;DHT22;4480;52.370;9.748;2023-05-21T04:43:45;12.90;99.90
8888;DHT22;4480;52.370;9.748;2023-05-21T04:46:13;13.10;99.90
8888;DHT22;4480;52.370;9.748;2023-05-21T04:48:40;13.20;99.90
8888;DHT22;4480;52.370;9.748;2023-05-21T04:51:07;13.30;99.90
8888;DHT22;4480;52.370;9.748;2023-05-21T04:53:34;13.40;99.90
8888;DHT22;4480;52.370;9.748;2023-05-21T04:56:00;13.60;99.90
8888;DHT22;4480;52.370;9.748;2023-05-21T04:58:28;13.80;99.90
8888;DHT22;4480;52.370;9.748;2023-05-21T05:00:57;14.00;99.90
8888;DHT22;4480;52.370;9.748;2023-05-21T05:03:29;14.10;99.90
8888;DHT22;4480;52.370;9.748;2023-05-21T05:05:55;14.20;99.90
8888;DHT22;4480;52.370;9.748;2023-05-21T05:08:22;14.20;99.90
8888;DHT22;4480;52.370;9.748;2023-05-21T05:10:49;14.30;99.90
8888;DHT22;4480;52.370;9.748;2023-05-21T05:13:16;14.40;99.90
8888;DHT22;4480;52.370;9.748;2023-05-21T05:15:43;14.40;99.90
8888;DHT22;4480;52.370;9.748;2023-05-21T05:18:10;14.40;99.90
8888;DHT22;4480;52.370;9.748;2023-05-21T05:20:44;14.30;99.90
8888;DHT22;4480;52.370;9.748;2023-05-21T05:23:12;14.30;99.90
8888;DHT22;4480;52.370;9.748;2023-05-21T05:25:39;14.30;99.90
8888;DHT22;4480;52.370;9.748;2023-05-21T05:28:06;14.30;99.90
8888;DHT22;4480;52.370;9.748;2023-05-21T05:30:32;14.30;99.90
8888;DHT22;4480;52.370;9.748;2023-05-21T05:33:00;14.30;99.90
8888;DHT22;4480;52.370;9.748;2023-05-21T05:35:27;14.40;99.90
8888;DHT22;4480;52.370;9.748;2023-05-21T05:37:55;14.50;99.90
8888;DHT22;4480;52.370;9.748;2023-05-21T05:40:22;14.60;99.90
8888;DHT22;4480;52.370;9.748;2023-05-21T05:42:49;14.70;99.90
8888;DHT22;4480;52.370;9.748;2023-05-21T05:45:17;14.80;99.90
8888;DHT22;4480;52.370;9.748;2023-05-21T05:47:44;14.80;99.90
8888;DHT22;4480;52.370;9.748;2023-05-21T05:50:11;14.90;99.90
8888;DHT22;4480;52.370;9.748;2023-05-21T05:52:38;15.00;99.90
8888;DHT22;4480;52.370;9.748;2023-05-21T05:55:07;15.00;99.90
8888;DHT22;4480;52.370;9.748;2023-05-21T05:57:34;15.10;99.90
8888;DHT22;4480;52.370;9.748;2023-05-21T06:00:01;15.10;99.90
8888;DHT22;4480;52.370;9.748;2023-05-21T06:02:28;15.20;99.90
8888;DHT22;4480;52.370;9.748;2023-05-21T06:04:55;15.30;99.90
8888;DHT22;4480;52.370;9.748;2023-05-21T06:07:22;15.30;99.90
8888;DHT22;4480;52.370;9.748;2023-05-21T06:09:49;15.30;99.90
8888;DHT22;4480;52.370;9.748;2023-05-21T06:12:17;15.30;99.90
8888;DHT22;4480;52.370;9.748;2023-05-21T06:14:44;15.30;99.90
8888;DHT22;4480;52.370;9.748;2023-05-21T06:17:13;15.40;99.90
8888;DHT22;4480;52.370;9.748;2023-05-21T06:19:40;15.40;99.90
8888;DHT22;4480;52.370;9.748;2023-05-21T06:22:07;15.40;99.90
8888;DHT22;4480;52.370;9.748;2023-05-21T06:24:34;15.40;99.90
8888;DHT22;4480;52.370;9.748;2023-05-21T06:27:01;15.40;99.90
8888;DHT22;4480;52.370;9.748;2023-05-21T06:29:29;15.50;99.90
8888;DHT22;4480;52.370;9.748;2023-05-21T06:31:56;15.50;99.90
8888;DHT22;4480;52.370;9.748;2023-05-21T06:34:23;15.70;99.90
8888;DHT22;4480;52.370;9.748;2023-05-21T06:36:50;15.80;99.90
8888;DHT22;4480;52.370;9.748;2023-05-21T06:39:17;15.90;99.90
8888;DHT22;4480;52.370;9.748;2023-05-21T06:41:44;16.10;99.90
8888;DHT22;4480;52.370;9.748;2023-05-21T06:44:11;16.10;99.90
8888;DHT22;4480;52.370;9.748;2023-05-21T06:46:39;16.20;99.90
8888;DHT22;4480;52.370;9.748;2023-05-21T06:49:06;16.20;99.90
8888;DHT22;4480;52.370;9.748;2023-05-21T06:51:33;16.20;99.90
8888;DHT22;4480;52.370;9.748;2023-05-21T06:54:00;16.20;99.90
8888;DHT22;4480;52.370;9.748;2023-05-21T06:56:27;16.30;99.90
8888;DHT22;4480;52.370;9.748;2023-05-21T06:58:53;16.30;99.90
8888;DHT22;4480;52.370;9.748;2023-05-21T07:01:21;16.40;99.90
8888;DHT22;4480;52.370;9.748;2023-05-21T07:03:50;16.50;99.90
8888;DHT22;4480;52.370;9.748;2023-05-21T07:06:17;16.70;99.90
8888;DHT22;4480;52.370;9.748;2023-05-21T07:08:44;17.00;99.90
8888;DHT22;4480;52.370;9.748;2023-05-21T07:11:12;17.20;99.90
8888;DHT22;4480;52.370;9.748;2023-05-21T07:13:39;17.30;99.90
8888;DHT22;4480;52.370;9.748;2023-05-21T07:16:06;17.40;99.90
8888;DHT22;4480;52.370;9.748;2023-05-21T07:18:33;17.40;99.90
8888;DHT22;4480;52.370;9.748;2023-05-21T07:21:01;17.40;99.90
8888;DHT22;4480;52.370;9.748;2023-05-21T07:23:28;17.50;99.90
8888;DHT22;4480;52.370;9.748;2023-05-21T07:25:55;17.60;99.90
8888;DHT22;4480;52.370;9.748;2023-05-21T07:28:21;17.60;99.90
8888;DHT22;4480;52.370;9.748;2023-05-21T07:30:48;17.80;99.90
8888;DHT22;4480;52.370;9.748;2023-05-21T07:33:15;17.90;99.90
8888;DHT22;4480;52.370;9.748;2023-05-21T07:35:44;18.00;99.90
8888;DHT22;4480;52.370;9.748;2023-05-21T07:38:13;18.10;99.90
8888;DHT22;4480;52.370;9.748;2023-05-21T07:40:39;18.20;99.90
8888;DHT22;4480;52.370;9.748;2023-05-21T07:43:06;18.20;99.90
8888;DHT22;4480;52.370;9.748;2023-05-21T07:45:33;18.20;99.90
8888;DHT22;4480;52.370;9.748;2023-05-21T07:48:00;18.30;99.90
8888;DHT22;4480;52.370;9.748;2023-05-21T07:50:27;18.40;99.90
8888;DHT22;4480;52.370;9.748;2023-05-21T07:52:53;18.70;99.50
8888;DHT22;4480;52.370;9.748;2023-05-21T07:55:22;18.90;98.40
8888;DHT22;4480;52.370;9.748;2023-05-21T07:57:48;19.10;97.70
8888;DHT22;4480;52.370;9.748;2023-05-21T08:00:16;19.30;96.90
8888;DHT22;4480;52.370;9.748;2023-05-21T08:02:43;19.40;95.80
8888;DHT22;4480;52.370;9.748;2023-05-21T08:05:10;19.40;95.30
8888;DHT22;4480;52.370;9.748;2023-05-21T08:07:37;19.40;95.20
8888;DHT22;4480;52.370;9.748;2023-05-21T08:10:05;19.50;94.80
8888;DHT22;4480;52.370;9.748;2023-05-21T08:12:34;19.50;94.40
8888;DHT22;4480;52.370;9.748;2023-05-21T08:15:01;19.70;94.20
8888;DHT22;4480;52.370;9.748;2023-05-21T08:17:28;19.70;93.30
8888;DHT22;4480;52.370;9.748;2023-05-21T08:19:55;19.80;92.90
8888;DHT22;4480;52.370;9.748;2023-05-21T08:22:21;19.80;92.70
8888;DHT22;4480;52.370;9.748;2023-05-21T08:24:48;19.90;92.60
8888;DHT22;4480;52.370;9.748;2023-05-21T08:27:15;19.90;92.20
8888;DHT22;4480;52.370;9.748;2023-05-21T08:29:43;20.00;91.90
8888;DHT22;4480;52.370;9.748;2023-05-21T08:32:10;20.00;91.70
8888;DHT22;4480;52.370;9.748;2023-05-21T08:34:37;20.10;92.00
8888;DHT22;4480;52.370;9.748;2023-05-21T08:37:04;20.30;91.40
8888;DHT22;4480;52.370;9.748;2023-05-21T08:39:30;20.60;90.40
8888;DHT22;4480;52.370;9.748;2023-05-21T08:42:10;20.90;88.20
8888;DHT22;4480;52.370;9.748;2023-05-21T08:44:43;21.10;86.30
8888;DHT22;4480;52.370;9.748;2023-05-21T08:47:15;21.30;84.10
8888;DHT22;4480;52.370;9.748;2023-05-21T08:49:45;21.40;82.70
8888;DHT22;4480;52.370;9.748;2023-05-21T08:52:15;21.30;81.80
8888;DHT22;4480;52.370;9.748;2023-05-21T08:54:42;21.30;81.90
8888;DHT22;4480;52.370;9.748;2023-05-21T08:57:11;21.30;81.20
8888;DHT22;4480;52.370;9.748;2023-05-21T08:59:39;21.50;80.80
8888;DHT22;4480;52.370;9.748;2023-05-21T09:02:11;21.60;79.50
8888;DHT22;4480;52.370;9.748;2023-05-21T09:04:38;21.70;78.80
8888;DHT22;4480;52.370;9.748;2023-05-21T09:07:06;21.70;78.80
8888;DHT22;4480;52.370;9.748;2023-05-21T09:09:36;21.70;77.60
8888;DHT22;4480;52.370;9.748;2023-05-21T09:12:05;21.70;77.70
8888;DHT22;4480;52.370;9.748;2023-05-21T09:14:32;21.90;77.10
8888;DHT22;4480;52.370;9.748;2023-05-21T09:16:59;22.10;76.60
8888;DHT22;4480;52.370;9.748;2023-05-21T09:19:28;22.30;75.40
8888;DHT22;4480;52.370;9.748;2023-05-21T09:22:00;22.40;74.40
8888;DHT22;4480;52.370;9.748;2023-05-21T09:24:29;22.60;73.40
8888;DHT22;4480;52.370;9.748;2023-05-21T09:26:57;22.70;72.60
8888;DHT22;4480;52.370;9.748;2023-05-21T09:29:25;22.80;71.70
8888;DHT22;4480;52.370;9.748;2023-05-21T09:31:55;22.80;71.10
8888;DHT22;4480;52.370;9.748;2023-05-21T09:34:24;22.70;71.60
8888;DHT22;4480;52.370;9.748;2023-05-21T09:36:55;22.80;71.00
8888;DHT22;4480;52.370;9.748;2023-05-21T09:39:28;22.90;70.50
8888;DHT22;4480;52.370;9.748;2023-05-21T09:41:55;22.90;69.90
8888;DHT22;4480;52.370;9.748;2023-05-21T09:44:22;22.90;69.70
8888;DHT22;4480;52.370;9.748;2023-05-21T09:46:49;23.00;69.20
8888;DHT22;4480;52.370;9.748;2023-05-21T09:49:22;23.00;68.90
8888;DHT22;4480;52.370;9.748;2023-05-21T09:51:55;23.10;68.70
8888;DHT22;4480;52.370;9.748;2023-05-21T09:54:22;23.20;68.40
8888;DHT22;4480;52.370;9.748;2023-05-21T09:56:50;23.30;68.00
8888;DHT22;4480;52.370;9.748;2023-05-21T09:59:17;23.30;67.40
8888;DHT22;4480;52.370;9.748;2023-05-21T10:01:45;23.40;67.10
8888;DHT22;4480;52.370;9.748;2023-05-21T10:04:29;23.50;66.70
8888;DHT22;4480;52.370;9.748;2023-05-21T10:06:58;23.60;66.50
8888;DHT22;4480;52.370;9.748;2023-05-21T10:09:28;23.80;65.90
8888;DHT22;4480;52.370;9.748;2023-05-21T10:11:56;24.10;64.80
8888;DHT22;4480;52.370;9.748;2023-05-21T10:14:24;24.20;63.70
8888;DHT22;4480;52.370;9.748;2023-05-21T10:16:53;24.20;63.00
8888;DHT22;4480;52.370;9.748;2023-05-21T10:19:21;24.20;62.60
8888;DHT22;4480;52.370;9.748;2023-05-21T10:21:50;24.20;62.50
8888;DHT22;4480;52.370;9.748;2023-05-21T10:24:19;24.40;62.40
8888;DHT22;4480;52.370;9.748;2023-05-21T10:26:47;24.50;61.80
8888;DHT22;4480;52.370;9.748;2023-05-21T10:29:14;24.70;61.30
8888;DHT22;4480;52.370;9.748;2023-05-21T10:31:42;24.90;60.80
8888;DHT22;4480;52.370;9.748;2023-05-21T10:34:11;25.10;60.20
8888;DHT22;4480;52.370;9.748;2023-05-21T10:36:39;25.20;59.60
8888;DHT22;4480;52.370;9.748;2023-05-21T10:39:06;25.20;59.10
8888;DHT22;4480;52.370;9.748;2023-05-21T10:41:43;25.20;58.40
8888;DHT22;4480;52.370;9.748;2023-05-21T10:44:20;25.10;58.20
8888;DHT22;4480;52.370;9.748;2023-05-21T10:47:18;25.10;58.20
8888;DHT22;4480;52.370;9.748;2023-05-21T10:50:13;25.20;58.00
8888;DHT22;4480;52.370;9.748;2023-05-21T10:52:59;25.20;57.70
8888;DHT22;4480;52.370;9.748;2023-05-21T10:55:37;25.10;57.70
8888;DHT22;4480;52.370;9.748;2023-05-21T11:01:26;25.00;57.80
8888;DHT22;4480;52.370;9.748;2023-05-21T11:03:54;25.00;57.70
8888;DHT22;4480;52.370;9.748;2023-05-21T11:06:22;25.10;57.60
8888;DHT22;4480;52.370;9.748;2023-05-21T11:08:50;25.30;57.50
8888;DHT22;4480;52.370;9.748;2023-05-21T11:11:38;25.50;57.30
8888;DHT22;4480;52.370;9.748;2023-05-21T11:14:33;25.60;56.70
8888;DHT22;4480;52.370;9.748;2023-05-21T11:17:01;25.80;56.30
8888;DHT22;4480;52.370;9.748;2023-05-21T11:19:36;26.00;55.70
8888;DHT22;4480;52.370;9.748;2023-05-21T11:22:08;25.90;55.50
8888;DHT22;4480;52.370;9.748;2023-05-21T11:24:40;25.90;55.40
8888;DHT22;4480;52.370;9.748;2023-05-21T11:27:07;25.90;55.20
8888;DHT22;4480;52.370;9.748;2023-05-21T11:29:41;26.00;54.90
8888;DHT22;4480;52.370;9.748;2023-05-21T11:32:09;26.00;54.60
8888;DHT22;4480;52.370;9.748;2023-05-21T11:34:38;25.90;54.70
8888;DHT22;4480;52.370;9.748;2023-05-21T11:37:33;26.00;54.20
8888;DHT22;4480;52.370;9.748;2023-05-21T11:40:19;26.00;53.90
8888;DHT22;4480;52.370;9.748;2023-05-21T11:42:49;26.00;54.10
8888;DHT22;4480;52.370;9.748;2023-05-21T11:45:19;26.10;53.80
8888;DHT22;4480;52.370;9.748;2023-05-21T11:47:46;26.30;53.50
8888;DHT22;4480;52.370;9.748;2023-05-21T11:50:14;26.40;53.20
8888;DHT22;4480;52.370;9.748;2023-05-21T11:52:41;26.50;53.10
8888;DHT22;4480;52.370;9.748;2023-05-21T11:55:09;26.70;52.70
8888;DHT22;4480;52.370;9.748;2023-05-21T11:57:39;27.00;52.30
8888;DHT22;4480;52.370;9.748;2023-05-21T12:00:12;27.30;52.00
8888;DHT22;4480;52.370;9.748;2023-05-21T12:02:45;27.60;51.30
8888;DHT22;4480;52.370;9.748;2023-05-21T12:05:12;27.80;50.80
8888;DHT22;4480;52.370;9.748;2023-05-21T12:07:39;28.10;50.40
8888;DHT22;4480;52.370;9.748;2023-05-21T12:10:07;28.20;50.10
8888;DHT22;4480;52.370;9.748;2023-05-21T12:12:34;28.40;49.60
8888;DHT22;4480;52.370;9.748;2023-05-21T12:15:01;28.60;48.40
8888;DHT22;4480;52.370;9.748;2023-05-21T12:17:29;28.70;48.10
8888;DHT22;4480;52.370;9.748;2023-05-21T12:19:58;29.00;47.90
8888;DHT22;4480;52.370;9.748;2023-05-21T12:22:26;29.30;47.30
8888;DHT22;4480;52.370;9.748;2023-05-21T12:24:54;29.40;46.80
8888;DHT22;4480;52.370;9.748;2023-05-21T12:27:22;29.10;47.00
8888;DHT22;4480;52.370;9.748;2023-05-21T12:29:50;28.80;47.60
8888;DHT22;4480;52.370;9.748;2023-05-21T12:32:19;28.50;48.10
8888;DHT22;4480;52.370;9.748;2023-05-21T12:34:47;28.20;47.90
8888;DHT22;4480;52.370;9.748;2023-05-21T12:37:18;28.00;48.60
8888;DHT22;4480;52.370;9.748;2023-05-21T12:39:47;27.70;49.40
8888;DHT22;4480;52.370;9.748;2023-05-21T12:42:14;27.50;49.80
8888;DHT22;4480;52.370;9.748;2023-05-21T12:44:43;27.30;50.00
8888;DHT22;4480;52.370;9.748;2023-05-21T12:47:10;27.20;50.30
8888;DHT22;4480;52.370;9.748;2023-05-21T12:49:39;27.10;50.60
8888;DHT22;4480;52.370;9.748;2023-05-21T12:52:10;27.10;50.90
8888;DHT22;4480;52.370;9.748;2023-05-21T12:54:40;27.10;51.00
8888;DHT22;4480;52.370;9.748;2023-05-21T12:57:18;27.20;51.00
8888;DHT22;4480;52.370;9.748;2023-05-21T12:59:49;27.40;50.80
8888;DHT22;4480;52.370;9.748;2023-05-21T13:02:21;27.50;50.30
8888;DHT22;4480;52.370;9.748;2023-05-21T13:04:52;27.50;50.20
8888;DHT22;4480;52.370;9.748;2023-05-21T13:07:19;27.50;50.10
8888;DHT22;4480;52.370;9.748;2023-05-21T13:09:48;27.40;50.20
8888;DHT22;4480;52.370;9.748;2023-05-21T13:12:17;27.50;50.40
8888;DHT22;4480;52.370;9.748;2023-05-21T13:14:44;27.50;50.10
8888;DHT22;4480;52.370;9.748;2023-05-21T13:17:11;27.30;50.40
8888;DHT22;4480;52.370;9.748;2023-05-21T13:19:38;27.30;50.70
8888;DHT22;4480;52.370;9.748;2023-05-21T13:22:04;27.20;50.90
8888;DHT22;4480;52.370;9.748;2023-05-21T13:24:31;27.10;51.00
8888;DHT22;4480;52.370;9.748;2023-05-21T13:26:59;27.10;50.90
8888;DHT22;4480;52.370;9.748;2023-05-21T13:29:26;27.10;51.00
8888;DHT22;4480;52.370;9.748;2023-05-21T13:31:53;27.10;50.90
8888;DHT22;4480;52.370;9.748;2023-05-21T13:34:20;27.10;50.80
8888;DHT22;4480;52.370;9.748;2023-05-21T13:36:46;27.00;50.80
8888;DHT22;4480;52.370;9.748;2023-05-21T13:39:13;27.20;51.00
8888;DHT22;4480;52.370;9.748;2023-05-21T13:41:40;27.50;50.80
8888;DHT22;4480;52.370;9.748;2023-05-21T13:44:09;27.70;50.20
8888;DHT22;4480;52.370;9.748;2023-05-21T13:46:36;28.00;49.60
8888;DHT22;4480;52.370;9.748;2023-05-21T13:49:04;28.20;49.30
8888;DHT22;4480;52.370;9.748;2023-05-21T13:51:31;28.20;48.80
8888;DHT22;4480;52.370;9.748;2023-05-21T13:53:58;28.30;48.90
8888;DHT22;4480;52.370;9.748;2023-05-21T13:56:25;28.20;48.80
8888;DHT22;4480;52.370;9.748;2023-05-21T13:58:52;28.20;49.00
8888;DHT22;4480;52.370;9.748;2023-05-21T14:01:20;28.20;49.20
8888;DHT22;4480;52.370;9.748;2023-05-21T14:03:47;28.10;50.00
8888;DHT22;4480;52.370;9.748;2023-05-21T14:06:13;28.00;49.50
8888;DHT22;4480;52.370;9.748;2023-05-21T14:08:41;28.00;49.60
8888;DHT22;4480;52.370;9.748;2023-05-21T14:11:07;27.90;49.70
8888;DHT22;4480;52.370;9.748;2023-05-21T14:13:34;27.80;49.70
8888;DHT22;4480;52.370;9.748;2023-05-21T14:16:01;27.80;49.70
8888;DHT22;4480;52.370;9.748;2023-05-21T14:18:29;27.80;49.70
8888;DHT22;4480;52.370;9.748;2023-05-21T14:20:56;27.80;49.80
8888;DHT22;4480;52.370;9.748;2023-05-21T14:23:23;27.90;49.80
8888;DHT22;4480;52.370;9.748;2023-05-21T14:25:49;27.90;49.90
8888;DHT22;4480;52.370;9.748;2023-05-21T14:28:16;28.00;50.10
8888;DHT22;4480;52.370;9.748;2023-05-21T14:30:43;28.00;50.00
8888;DHT22;4480;52.370;9.748;2023-05-21T14:33:10;28.00;49.80
8888;DHT22;4480;52.370;9.748;2023-05-21T14:35:39;27.90;49.90
8888;DHT22;4480;52.370;9.748;2023-05-21T14:38:08;27.80;49.90
8888;DHT22;4480;52.370;9.748;2023-05-21T14:40:35;27.70;50.10
8888;DHT22;4480;52.370;9.748;2023-05-21T14:43:02;27.70;50.20
8888;DHT22;4480;52.370;9.748;2023-05-21T14:45:30;27.70;50.30
8888;DHT22;4480;52.370;9.748;2023-05-21T14:47:59;27.70;50.40
8888;DHT22;4480;52.370;9.748;2023-05-21T14:50:26;27.50;50.60
8888;DHT22;4480;52.370;9.748;2023-05-21T14:52:54;27.40;50.90
8888;DHT22;4480;52.370;9.748;2023-05-21T14:55:21;27.40;51.00
8888;DHT22;4480;52.370;9.748;2023-05-21T14:57:48;27.50;50.90
8888;DHT22;4480;52.370;9.748;2023-05-21T15:00:15;27.50;50.70
8888;DHT22;4480;52.370;9.748;2023-05-21T15:02:41;27.50;50.60
8888;DHT22;4480;52.370;9.748;2023-05-21T15:05:08;27.60;50.70
8888;DHT22;4480;52.370;9.748;2023-05-21T15:07:35;27.60;50.60
8888;DHT22;4480;52.370;9.748;2023-05-21T15:10:04;27.60;50.50
8888;DHT22;4480;52.370;9.748;2023-05-21T15:12:31;27.60;50.60
8888;DHT22;4480;52.370;9.748;2023-05-21T15:14:58;27.60;50.60
8888;DHT22;4480;52.370;9.748;2023-05-21T15:17:25;27.50;50.60
8888;DHT22;4480;52.370;9.748;2023-05-21T15:19:52;27.40;50.80
8888;DHT22;4480;52.370;9.748;2023-05-21T15:22:18;27.40;50.80
8888;DHT22;4480;52.370;9.748;2023-05-21T15:24:45;27.40;50.80
8888;DHT22;4480;52.370;9.748;2023-05-21T15:27:13;27.40;50.70
8888;DHT22;4480;52.370;9.748;2023-05-21T15:29:40;27.60;50.70
8888;DHT22;4480;52.370;9.748;2023-05-21T15:32:07;27.70;50.40
8888;DHT22;4480;52.370;9.748;2023-05-21T15:34:34;27.90;50.10
8888;DHT22;4480;52.370;9.748;2023-05-21T15:37:00;28.00;49.80
8888;DHT22;4480;52.370;9.748;2023-05-21T15:39:28;28.00;49.40
8888;DHT22;4480;52.370;9.748;2023-05-21T15:41:55;28.10;50.10
8888;DHT22;4480;52.370;9.748;2023-05-21T15:44:24;28.10;49.20
8888;DHT22;4480;52.370;9.748;2023-05-21T15:46:51;28.10;49.10
8888;DHT22;4480;52.370;9.748;2023-05-21T15:49:19;28.20;48.90
8888;DHT22;4480;52.370;9.748;2023-05-21T15:51:46;28.30;48.70
8888;DHT22;4480;52.370;9.748;2023-05-21T15:54:14;28.40;48.70
8888;DHT22;4480;52.370;9.748;2023-05-21T15:56:43;28.50;48.60
8888;DHT22;4480;52.370;9.748;2023-05-21T15:59:10;28.50;48.40
8888;DHT22;4480;52.370;9.748;2023-05-21T16:01:38;28.50;48.20
8888;DHT22;4480;52.370;9.748;2023-05-21T16:04:06;28.50;48.20
8888;DHT22;4480;52.370;9.748;2023-05-21T16:06:33;28.60;48.10
8888;DHT22;4480;52.370;9.748;2023-05-21T16:08:59;28.70;47.80
8888;DHT22;4480;52.370;9.748;2023-05-21T16:11:26;29.00;47.40
8888;DHT22;4480;52.370;9.748;2023-05-21T16:13:54;29.40;46.80